sensor_id;sensor_type;location;lat;lon;timestamp;P1;durP1;ratioP1;P2;durP2;ratioP2
71296;SDS011;59082;50.658;4.608;2022-12-31T00:01:08;1.83;;;1.00;;
71296;SDS011;59082;50.658;4.608;2022-12-31T00:03:35;1.90;;;0.88;;
71296;SDS011;59082;50.658;4.608;2022-12-31T00:06:01;1.45;;;1.35;;
71296;SDS011;59082;50.658;4.608;2022-12-31T00:08:35;0.87;;;0.80;;
71296;SDS011;59082;50.658;4.608;2022-12-31T00:11:01;0.82;;;0.68;;
71296;SDS011;59082;50.658;4.608;2022-12-31T00:13:26;1.00;;;0.93;;
71296;SDS011;59082;50.658;4.608;2022-12-31T00:15:52;0.60;;;0.60;;
71296;SDS011;59082;50.658;4.608;2022-12-31T00:18:17;1.55;;;1.13;;
71296;SDS011;59082;50.658;4.608;2022-12-31T00:20:44;1.07;;;0.93;;
71296;SDS011;59082;50.658;4.608;2022-12-31T00:23:10;1.95;;;1.27;;
71296;SDS011;59082;50.658;4.608;2022-12-31T00:25:35;1.90;;;1.70;;
71296;SDS011;59082;50.658;4.608;2022-12-31T00:28:02;1.35;;;0.45;;
71296;SDS011;59082;50.658;4.608;2022-12-31T00:30:29;3.65;;;1.50;;
71296;SDS011;59082;50.658;4.608;2022-12-31T00:32:55;1.53;;;0.73;;
71296;SDS011;59082;50.658;4.608;2022-12-31T00:35:23;1.10;;;1.00;;
71296;SDS011;59082;50.658;4.608;2022-12-31T00:37:50;1.20;;;1.20;;
71296;SDS011;59082;50.658;4.608;2022-12-31T00:40:16;1.37;;;1.20;;
71296;SDS011;59082;50.658;4.608;2022-12-31T00:42:41;1.00;;;0.70;;
71296;SDS011;59082;50.658;4.608;2022-12-31T00:45:07;0.70;;;0.70;;
71296;SDS011;59082;50.658;4.608;2022-12-31T00:47:33;0.80;;;0.80;;
71296;SDS011;59082;50.658;4.608;2022-12-31T00:49:58;0.60;;;0.60;;
71296;SDS011;59082;50.658;4.608;2022-12-31T00:52:24;0.77;;;0.77;;
71296;SDS011;59082;50.658;4.608;2022-12-31T00:54:50;1.00;;;0.75;;
71296;SDS011;59082;50.658;4.608;2022-12-31T00:57:17;1.38;;;0.77;;
71296;SDS011;59082;50.658;4.608;2022-12-31T00:59:43;1.57;;;0.77;;
71296;SDS011;59082;50.658;4.608;2022-12-31T01:02:08;0.95;;;0.90;;
71296;SDS011;59082;50.658;4.608;2022-12-31T01:04:34;1.13;;;1.10;;
71296;SDS011;59082;50.658;4.608;2022-12-31T01:06:59;1.13;;;1.07;;
71296;SDS011;59082;50.658;4.608;2022-12-31T01:09:25;0.88;;;0.88;;
71296;SDS011;59082;50.658;4.608;2022-12-31T01:11:51;1.77;;;0.83;;
71296;SDS011;59082;50.658;4.608;2022-12-31T01:14:18;1.23;;;0.60;;
71296;SDS011;59082;50.658;4.608;2022-12-31T01:16:51;1.77;;;0.80;;
71296;SDS011;59082;50.658;4.608;2022-12-31T01:19:18;0.50;;;0.50;;
71296;SDS011;59082;50.658;4.608;2022-12-31T01:21:54;0.65;;;0.65;;
71296;SDS011;59082;50.658;4.608;2022-12-31T01:24:20;0.70;;;0.70;;
71296;SDS011;59082;50.658;4.608;2022-12-31T01:26:46;0.82;;;0.75;;
71296;SDS011;59082;50.658;4.608;2022-12-31T01:29:12;1.70;;;1.00;;
71296;SDS011;59082;50.658;4.608;2022-12-31T01:31:38;0.45;;;0.30;;
71296;SDS011;59082;50.658;4.608;2022-12-31T01:34:04;1.45;;;0.80;;
71296;SDS011;59082;50.658;4.608;2022-12-31T01:36:31;0.47;;;0.47;;
71296;SDS011;59082;50.658;4.608;2022-12-31T01:38:59;1.92;;;0.77;;
71296;SDS011;59082;50.658;4.608;2022-12-31T01:41:27;1.87;;;0.60;;
71296;SDS011;59082;50.658;4.608;2022-12-31T01:46:46;0.80;;;0.73;;
71296;SDS011;59082;50.658;4.608;2022-12-31T01:49:20;0.47;;;0.40;;
71296;SDS011;59082;50.658;4.608;2022-12-31T01:52:03;0.93;;;0.88;;
71296;SDS011;59082;50.658;4.608;2022-12-31T01:54:36;2.67;;;0.77;;
71296;SDS011;59082;50.658;4.608;2022-12-31T01:57:08;3.83;;;0.32;;
71296;SDS011;59082;50.658;4.608;2022-12-31T01:59:34;3.55;;;0.90;;
71296;SDS011;59082;50.658;4.608;2022-12-31T02:02:00;0.80;;;0.47;;
71296;SDS011;59082;50.658;4.608;2022-12-31T02:04:27;1.27;;;0.85;;
71296;SDS011;59082;50.658;4.608;2022-12-31T02:06:59;1.23;;;0.63;;
71296;SDS011;59082;50.658;4.608;2022-12-31T02:09:30;1.85;;;0.73;;
71296;SDS011;59082;50.658;4.608;2022-12-31T02:11:57;1.45;;;0.90;;
71296;SDS011;59082;50.658;4.608;2022-12-31T02:14:23;2.57;;;1.00;;
71296;SDS011;59082;50.658;4.608;2022-12-31T02:17:00;0.93;;;0.70;;
71296;SDS011;59082;50.658;4.608;2022-12-31T02:20:03;1.73;;;0.47;;
71296;SDS011;59082;50.658;4.608;2022-12-31T02:34:25;2.38;;;1.73;;
71296;SDS011;59082;50.658;4.608;2022-12-31T02:36:55;0.75;;;0.73;;
71296;SDS011;59082;50.658;4.608;2022-12-31T02:39:24;2.95;;;0.80;;
71296;SDS011;59082;50.658;4.608;2022-12-31T02:41:50;3.20;;;0.90;;
71296;SDS011;59082;50.658;4.608;2022-12-31T02:44:34;3.90;;;1.20;;
71296;SDS011;59082;50.658;4.608;2022-12-31T02:52:38;1.60;;;0.52;;
71296;SDS011;59082;50.658;4.608;2022-12-31T02:58:16;5.97;;;1.20;;
71296;SDS011;59082;50.658;4.608;2022-12-31T03:00:47;2.50;;;1.65;;
71296;SDS011;59082;50.658;4.608;2022-12-31T03:03:33;1.73;;;0.70;;
71296;SDS011;59082;50.658;4.608;2022-12-31T03:06:03;2.58;;;0.98;;
71296;SDS011;59082;50.658;4.608;2022-12-31T03:08:31;1.77;;;0.80;;
71296;SDS011;59082;50.658;4.608;2022-12-31T03:11:17;2.88;;;0.75;;
71296;SDS011;59082;50.658;4.608;2022-12-31T03:14:03;1.20;;;0.50;;
71296;SDS011;59082;50.658;4.608;2022-12-31T03:16:29;2.47;;;0.60;;
71296;SDS011;59082;50.658;4.608;2022-12-31T03:18:54;2.88;;;0.88;;
71296;SDS011;59082;50.658;4.608;2022-12-31T03:21:38;3.30;;;0.98;;
71296;SDS011;59082;50.658;4.608;2022-12-31T03:24:22;2.10;;;0.90;;
71296;SDS011;59082;50.658;4.608;2022-12-31T03:27:07;1.40;;;0.90;;
71296;SDS011;59082;50.658;4.608;2022-12-31T03:29:33;1.90;;;0.77;;
71296;SDS011;59082;50.658;4.608;2022-12-31T03:31:58;3.33;;;1.00;;
71296;SDS011;59082;50.658;4.608;2022-12-31T03:34:24;5.72;;;1.33;;
71296;SDS011;59082;50.658;4.608;2022-12-31T03:36:49;1.23;;;1.13;;
71296;SDS011;59082;50.658;4.608;2022-12-31T03:39:15;1.27;;;0.83;;
71296;SDS011;59082;50.658;4.608;2022-12-31T03:41:40;3.28;;;1.35;;
71296;SDS011;59082;50.658;4.608;2022-12-31T03:44:06;1.57;;;1.20;;
71296;SDS011;59082;50.658;4.608;2022-12-31T03:46:32;2.33;;;0.97;;
71296;SDS011;59082;50.658;4.608;2022-12-31T03:48:58;1.80;;;0.93;;
71296;SDS011;59082;50.658;4.608;2022-12-31T03:51:24;1.13;;;1.03;;
71296;SDS011;59082;50.658;4.608;2022-12-31T03:53:50;1.55;;;1.15;;
71296;SDS011;59082;50.658;4.608;2022-12-31T03:56:15;4.37;;;0.77;;
71296;SDS011;59082;50.658;4.608;2022-12-31T03:58:41;1.15;;;0.50;;
71296;SDS011;59082;50.658;4.608;2022-12-31T04:01:06;3.93;;;0.80;;
71296;SDS011;59082;50.658;4.608;2022-12-31T04:03:32;3.15;;;0.63;;
71296;SDS011;59082;50.658;4.608;2022-12-31T04:05:57;3.23;;;1.27;;
71296;SDS011;59082;50.658;4.608;2022-12-31T04:08:23;3.43;;;1.27;;
71296;SDS011;59082;50.658;4.608;2022-12-31T04:10:49;2.25;;;0.90;;
71296;SDS011;59082;50.658;4.608;2022-12-31T04:13:15;4.30;;;0.87;;
71296;SDS011;59082;50.658;4.608;2022-12-31T04:15:41;1.90;;;0.95;;
71296;SDS011;59082;50.658;4.608;2022-12-31T04:18:06;2.67;;;0.97;;
71296;SDS011;59082;50.658;4.608;2022-12-31T04:20:33;3.30;;;0.50;;
71296;SDS011;59082;50.658;4.608;2022-12-31T04:23:00;2.00;;;0.60;;
71296;SDS011;59082;50.658;4.608;2022-12-31T04:25:25;1.35;;;0.80;;
71296;SDS011;59082;50.658;4.608;2022-12-31T04:27:51;1.25;;;1.10;;
71296;SDS011;59082;50.658;4.608;2022-12-31T04:30:16;5.83;;;0.83;;
71296;SDS011;59082;50.658;4.608;2022-12-31T04:32:44;1.47;;;1.00;;
71296;SDS011;59082;50.658;4.608;2022-12-31T04:35:09;1.88;;;0.85;;
71296;SDS011;59082;50.658;4.608;2022-12-31T04:37:35;3.40;;;0.60;;
71296;SDS011;59082;50.658;4.608;2022-12-31T04:40:01;2.23;;;0.80;;
71296;SDS011;59082;50.658;4.608;2022-12-31T04:42:26;2.75;;;1.10;;
71296;SDS011;59082;50.658;4.608;2022-12-31T04:44:52;2.13;;;1.00;;
71296;SDS011;59082;50.658;4.608;2022-12-31T04:47:17;2.73;;;0.87;;
71296;SDS011;59082;50.658;4.608;2022-12-31T04:49:43;3.38;;;1.20;;
71296;SDS011;59082;50.658;4.608;2022-12-31T04:52:08;2.80;;;0.90;;
71296;SDS011;59082;50.658;4.608;2022-12-31T04:54:34;1.07;;;0.70;;
71296;SDS011;59082;50.658;4.608;2022-12-31T04:57:00;4.30;;;1.23;;
71296;SDS011;59082;50.658;4.608;2022-12-31T04:59:26;3.47;;;1.00;;
71296;SDS011;59082;50.658;4.608;2022-12-31T05:01:51;1.30;;;0.63;;
71296;SDS011;59082;50.658;4.608;2022-12-31T05:04:17;2.63;;;0.73;;
71296;SDS011;59082;50.658;4.608;2022-12-31T05:06:42;1.93;;;0.53;;
71296;SDS011;59082;50.658;4.608;2022-12-31T05:09:09;1.92;;;0.85;;
71296;SDS011;59082;50.658;4.608;2022-12-31T05:11:35;2.08;;;1.08;;
71296;SDS011;59082;50.658;4.608;2022-12-31T05:14:03;3.43;;;0.80;;
71296;SDS011;59082;50.658;4.608;2022-12-31T05:16:29;2.55;;;0.85;;
71296;SDS011;59082;50.658;4.608;2022-12-31T05:18:54;2.93;;;1.00;;
71296;SDS011;59082;50.658;4.608;2022-12-31T05:21:20;3.67;;;0.68;;
71296;SDS011;59082;50.658;4.608;2022-12-31T05:23:46;1.60;;;1.03;;
71296;SDS011;59082;50.658;4.608;2022-12-31T05:26:13;3.72;;;0.57;;
71296;SDS011;59082;50.658;4.608;2022-12-31T05:28:39;2.67;;;1.35;;
71296;SDS011;59082;50.658;4.608;2022-12-31T05:31:06;3.73;;;1.20;;
71296;SDS011;59082;50.658;4.608;2022-12-31T05:33:32;2.30;;;0.63;;
71296;SDS011;59082;50.658;4.608;2022-12-31T05:35:57;5.03;;;0.90;;
71296;SDS011;59082;50.658;4.608;2022-12-31T05:38:23;2.15;;;1.00;;
71296;SDS011;59082;50.658;4.608;2022-12-31T05:40:57;1.73;;;1.10;;
71296;SDS011;59082;50.658;4.608;2022-12-31T05:43:26;4.07;;;1.13;;
71296;SDS011;59082;50.658;4.608;2022-12-31T05:45:52;2.92;;;0.80;;
71296;SDS011;59082;50.658;4.608;2022-12-31T05:48:19;3.70;;;1.17;;
71296;SDS011;59082;50.658;4.608;2022-12-31T05:50:44;3.53;;;1.10;;
71296;SDS011;59082;50.658;4.608;2022-12-31T05:53:10;2.23;;;1.20;;
71296;SDS011;59082;50.658;4.608;2022-12-31T05:55:35;1.27;;;0.63;;
71296;SDS011;59082;50.658;4.608;2022-12-31T05:58:01;5.53;;;1.00;;
71296;SDS011;59082;50.658;4.608;2022-12-31T06:00:26;3.20;;;1.13;;
71296;SDS011;59082;50.658;4.608;2022-12-31T06:02:52;1.38;;;0.47;;
71296;SDS011;59082;50.658;4.608;2022-12-31T06:05:19;2.20;;;0.80;;
71296;SDS011;59082;50.658;4.608;2022-12-31T06:07:45;3.22;;;1.15;;
71296;SDS011;59082;50.658;4.608;2022-12-31T06:10:12;2.40;;;0.80;;
71296;SDS011;59082;50.658;4.608;2022-12-31T06:12:38;3.50;;;0.63;;
71296;SDS011;59082;50.658;4.608;2022-12-31T06:15:05;1.95;;;0.82;;
71296;SDS011;59082;50.658;4.608;2022-12-31T06:17:31;5.87;;;0.90;;
71296;SDS011;59082;50.658;4.608;2022-12-31T06:19:58;2.75;;;0.70;;
71296;SDS011;59082;50.658;4.608;2022-12-31T06:22:24;2.83;;;0.80;;
71296;SDS011;59082;50.658;4.608;2022-12-31T06:24:50;2.40;;;0.70;;
71296;SDS011;59082;50.658;4.608;2022-12-31T06:27:21;2.88;;;0.80;;
71296;SDS011;59082;50.658;4.608;2022-12-31T06:29:47;1.63;;;1.20;;
71296;SDS011;59082;50.658;4.608;2022-12-31T06:32:12;1.88;;;0.45;;
71296;SDS011;59082;50.658;4.608;2022-12-31T06:34:38;2.80;;;0.87;;
71296;SDS011;59082;50.658;4.608;2022-12-31T06:37:03;0.70;;;0.60;;
71296;SDS011;59082;50.658;4.608;2022-12-31T06:39:30;1.60;;;0.95;;
71296;SDS011;59082;50.658;4.608;2022-12-31T06:41:55;2.40;;;1.10;;
71296;SDS011;59082;50.658;4.608;2022-12-31T06:44:21;4.95;;;1.65;;
71296;SDS011;59082;50.658;4.608;2022-12-31T06:46:47;3.37;;;0.50;;
71296;SDS011;59082;50.658;4.608;2022-12-31T06:49:15;2.83;;;1.13;;
71296;SDS011;59082;50.658;4.608;2022-12-31T06:51:41;3.13;;;1.13;;
71296;SDS011;59082;50.658;4.608;2022-12-31T06:54:07;3.40;;;0.90;;
71296;SDS011;59082;50.658;4.608;2022-12-31T06:56:32;1.73;;;0.75;;
71296;SDS011;59082;50.658;4.608;2022-12-31T06:58:59;6.83;;;1.03;;
71296;SDS011;59082;50.658;4.608;2022-12-31T07:01:28;3.75;;;0.60;;
71296;SDS011;59082;50.658;4.608;2022-12-31T07:09:37;4.47;;;0.95;;
71296;SDS011;59082;50.658;4.608;2022-12-31T07:21:13;3.53;;;0.90;;
71296;SDS011;59082;50.658;4.608;2022-12-31T07:23:40;3.88;;;1.15;;
71296;SDS011;59082;50.658;4.608;2022-12-31T07:28:52;3.33;;;1.00;;
71296;SDS011;59082;50.658;4.608;2022-12-31T07:33:57;5.35;;;0.70;;
71296;SDS011;59082;50.658;4.608;2022-12-31T07:39:07;3.50;;;0.70;;
71296;SDS011;59082;50.658;4.608;2022-12-31T07:44:31;3.08;;;1.20;;
71296;SDS011;59082;50.658;4.608;2022-12-31T07:47:18;3.28;;;1.25;;
71296;SDS011;59082;50.658;4.608;2022-12-31T07:49:51;2.50;;;0.70;;
71296;SDS011;59082;50.658;4.608;2022-12-31T07:52:17;3.13;;;0.90;;
71296;SDS011;59082;50.658;4.608;2022-12-31T07:54:43;2.67;;;1.15;;
71296;SDS011;59082;50.658;4.608;2022-12-31T07:57:12;3.90;;;0.82;;
71296;SDS011;59082;50.658;4.608;2022-12-31T07:59:48;3.10;;;1.40;;
71296;SDS011;59082;50.658;4.608;2022-12-31T08:02:25;4.65;;;1.30;;
71296;SDS011;59082;50.658;4.608;2022-12-31T08:07:47;1.58;;;0.57;;
71296;SDS011;59082;50.658;4.608;2022-12-31T08:10:23;3.45;;;1.20;;
71296;SDS011;59082;50.658;4.608;2022-12-31T08:13:03;3.80;;;1.33;;
71296;SDS011;59082;50.658;4.608;2022-12-31T08:15:32;4.53;;;0.98;;
71296;SDS011;59082;50.658;4.608;2022-12-31T08:20:35;3.45;;;0.90;;
71296;SDS011;59082;50.658;4.608;2022-12-31T08:23:35;3.15;;;1.23;;
71296;SDS011;59082;50.658;4.608;2022-12-31T08:26:16;4.00;;;1.60;;
71296;SDS011;59082;50.658;4.608;2022-12-31T08:28:50;2.65;;;1.40;;
71296;SDS011;59082;50.658;4.608;2022-12-31T08:34:24;7.22;;;1.88;;
71296;SDS011;59082;50.658;4.608;2022-12-31T08:42:04;1.98;;;1.08;;
71296;SDS011;59082;50.658;4.608;2022-12-31T08:50:13;4.00;;;1.15;;
71296;SDS011;59082;50.658;4.608;2022-12-31T08:52:42;3.57;;;1.60;;
71296;SDS011;59082;50.658;4.608;2022-12-31T08:55:16;2.85;;;1.17;;
71296;SDS011;59082;50.658;4.608;2022-12-31T08:57:52;2.50;;;1.15;;
71296;SDS011;59082;50.658;4.608;2022-12-31T09:00:32;2.45;;;0.98;;
71296;SDS011;59082;50.658;4.608;2022-12-31T09:11:28;5.28;;;1.55;;
71296;SDS011;59082;50.658;4.608;2022-12-31T09:19:00;3.57;;;1.17;;
71296;SDS011;59082;50.658;4.608;2022-12-31T09:21:25;2.90;;;1.25;;
71296;SDS011;59082;50.658;4.608;2022-12-31T09:23:51;5.33;;;1.40;;
71296;SDS011;59082;50.658;4.608;2022-12-31T09:32:15;5.37;;;0.80;;
71296;SDS011;59082;50.658;4.608;2022-12-31T09:56:53;5.05;;;1.25;;
71296;SDS011;59082;50.658;4.608;2022-12-31T09:59:24;3.40;;;1.27;;
71296;SDS011;59082;50.658;4.608;2022-12-31T10:10:21;4.55;;;1.42;;
71296;SDS011;59082;50.658;4.608;2022-12-31T10:15:34;3.47;;;1.15;;
71296;SDS011;59082;50.658;4.608;2022-12-31T10:32:19;9.63;;;1.30;;
71296;SDS011;59082;50.658;4.608;2022-12-31T10:40:49;3.30;;;1.43;;
71296;SDS011;59082;50.658;4.608;2022-12-31T10:46:17;3.60;;;1.10;;
71296;SDS011;59082;50.658;4.608;2022-12-31T10:49:15;3.47;;;1.20;;
71296;SDS011;59082;50.658;4.608;2022-12-31T10:52:14;6.05;;;1.75;;
71296;SDS011;59082;50.658;4.608;2022-12-31T11:00:27;3.63;;;1.50;;
71296;SDS011;59082;50.658;4.608;2022-12-31T11:14:38;4.65;;;1.50;;
71296;SDS011;59082;50.658;4.608;2022-12-31T11:20:23;3.20;;;1.77;;
71296;SDS011;59082;50.658;4.608;2022-12-31T11:23:12;2.83;;;1.40;;
71296;SDS011;59082;50.658;4.608;2022-12-31T11:26:08;2.78;;;1.52;;
71296;SDS011;59082;50.658;4.608;2022-12-31T11:31:59;4.60;;;2.20;;
71296;SDS011;59082;50.658;4.608;2022-12-31T11:41:08;2.72;;;1.67;;
71296;SDS011;59082;50.658;4.608;2022-12-31T11:43:54;3.80;;;1.50;;
71296;SDS011;59082;50.658;4.608;2022-12-31T11:59:50;2.95;;;1.23;;
71296;SDS011;59082;50.658;4.608;2022-12-31T12:02:31;5.25;;;1.40;;
71296;SDS011;59082;50.658;4.608;2022-12-31T12:05:06;3.70;;;1.50;;
71296;SDS011;59082;50.658;4.608;2022-12-31T12:07:37;4.85;;;1.38;;
71296;SDS011;59082;50.658;4.608;2022-12-31T12:12:49;5.38;;;2.55;;
71296;SDS011;59082;50.658;4.608;2022-12-31T12:15:18;5.10;;;1.83;;
71296;SDS011;59082;50.658;4.608;2022-12-31T12:17:51;5.13;;;1.50;;
71296;SDS011;59082;50.658;4.608;2022-12-31T12:20:40;4.88;;;1.75;;
71296;SDS011;59082;50.658;4.608;2022-12-31T12:23:20;5.43;;;1.50;;
71296;SDS011;59082;50.658;4.608;2022-12-31T12:25:51;4.20;;;1.73;;
71296;SDS011;59082;50.658;4.608;2022-12-31T12:30:42;3.20;;;1.60;;
71296;SDS011;59082;50.658;4.608;2022-12-31T12:33:21;7.63;;;1.95;;
71296;SDS011;59082;50.658;4.608;2022-12-31T12:36:07;4.55;;;2.25;;
71296;SDS011;59082;50.658;4.608;2022-12-31T12:38:41;4.40;;;2.07;;
71296;SDS011;59082;50.658;4.608;2022-12-31T12:41:22;5.05;;;1.52;;
71296;SDS011;59082;50.658;4.608;2022-12-31T12:44:00;4.03;;;1.80;;
71296;SDS011;59082;50.658;4.608;2022-12-31T12:46:43;4.38;;;1.48;;
71296;SDS011;59082;50.658;4.608;2022-12-31T12:49:25;5.65;;;2.47;;
71296;SDS011;59082;50.658;4.608;2022-12-31T12:52:27;5.27;;;1.90;;
71296;SDS011;59082;50.658;4.608;2022-12-31T12:57:58;4.25;;;1.95;;
71296;SDS011;59082;50.658;4.608;2022-12-31T13:00:37;6.85;;;1.95;;
71296;SDS011;59082;50.658;4.608;2022-12-31T13:06:27;8.33;;;2.23;;
71296;SDS011;59082;50.658;4.608;2022-12-31T13:12:06;6.55;;;1.73;;
71296;SDS011;59082;50.658;4.608;2022-12-31T13:21:06;4.03;;;1.93;;
71296;SDS011;59082;50.658;4.608;2022-12-31T13:26:40;5.55;;;2.28;;
71296;SDS011;59082;50.658;4.608;2022-12-31T13:29:27;3.72;;;1.75;;
71296;SDS011;59082;50.658;4.608;2022-12-31T13:32:04;5.85;;;1.73;;
71296;SDS011;59082;50.658;4.608;2022-12-31T13:34:40;4.30;;;0.90;;
71296;SDS011;59082;50.658;4.608;2022-12-31T13:37:26;8.48;;;1.48;;
71296;SDS011;59082;50.658;4.608;2022-12-31T13:40:04;2.97;;;1.50;;
71296;SDS011;59082;50.658;4.608;2022-12-31T13:43:04;3.53;;;1.30;;
71296;SDS011;59082;50.658;4.608;2022-12-31T13:55:32;3.55;;;1.73;;
71296;SDS011;59082;50.658;4.608;2022-12-31T14:04:02;2.63;;;1.40;;
71296;SDS011;59082;50.658;4.608;2022-12-31T14:09:33;6.32;;;2.35;;
71296;SDS011;59082;50.658;4.608;2022-12-31T14:20:25;5.90;;;1.20;;
71296;SDS011;59082;50.658;4.608;2022-12-31T14:23:20;5.10;;;1.95;;
71296;SDS011;59082;50.658;4.608;2022-12-31T14:25:56;2.78;;;1.70;;
71296;SDS011;59082;50.658;4.608;2022-12-31T14:28:39;5.95;;;2.25;;
71296;SDS011;59082;50.658;4.608;2022-12-31T14:39:05;2.53;;;1.10;;
71296;SDS011;59082;50.658;4.608;2022-12-31T14:50:16;5.17;;;1.77;;
71296;SDS011;59082;50.658;4.608;2022-12-31T14:52:54;5.95;;;2.60;;
71296;SDS011;59082;50.658;4.608;2022-12-31T14:55:31;5.25;;;2.17;;
71296;SDS011;59082;50.658;4.608;2022-12-31T14:57:59;3.90;;;2.42;;
71296;SDS011;59082;50.658;4.608;2022-12-31T15:00:28;3.38;;;1.40;;
71296;SDS011;59082;50.658;4.608;2022-12-31T15:03:01;3.20;;;1.30;;
71296;SDS011;59082;50.658;4.608;2022-12-31T15:05:33;3.45;;;1.15;;
71296;SDS011;59082;50.658;4.608;2022-12-31T15:08:11;4.03;;;1.45;;
71296;SDS011;59082;50.658;4.608;2022-12-31T15:11:05;5.68;;;1.38;;
71296;SDS011;59082;50.658;4.608;2022-12-31T15:13:42;3.03;;;1.40;;
71296;SDS011;59082;50.658;4.608;2022-12-31T15:25:25;8.75;;;1.42;;
71296;SDS011;59082;50.658;4.608;2022-12-31T15:27:59;2.83;;;1.58;;
71296;SDS011;59082;50.658;4.608;2022-12-31T15:32:54;5.10;;;2.33;;
71296;SDS011;59082;50.658;4.608;2022-12-31T15:37:59;2.33;;;1.20;;
71296;SDS011;59082;50.658;4.608;2022-12-31T15:40:44;6.72;;;1.95;;
71296;SDS011;59082;50.658;4.608;2022-12-31T15:43:13;4.45;;;1.90;;
71296;SDS011;59082;50.658;4.608;2022-12-31T15:45:48;5.88;;;2.33;;
71296;SDS011;59082;50.658;4.608;2022-12-31T15:51:31;3.20;;;1.47;;
71296;SDS011;59082;50.658;4.608;2022-12-31T15:54:00;6.00;;;1.95;;
71296;SDS011;59082;50.658;4.608;2022-12-31T15:56:42;5.28;;;2.30;;
71296;SDS011;59082;50.658;4.608;2022-12-31T15:59:11;3.03;;;1.70;;
71296;SDS011;59082;50.658;4.608;2022-12-31T16:01:42;3.65;;;1.85;;
71296;SDS011;59082;50.658;4.608;2022-12-31T16:04:17;3.80;;;2.03;;
71296;SDS011;59082;50.658;4.608;2022-12-31T16:06:47;4.47;;;1.52;;
71296;SDS011;59082;50.658;4.608;2022-12-31T16:09:31;3.03;;;2.03;;
71296;SDS011;59082;50.658;4.608;2022-12-31T16:12:06;4.13;;;2.60;;
71296;SDS011;59082;50.658;4.608;2022-12-31T16:14:39;2.80;;;1.63;;
71296;SDS011;59082;50.658;4.608;2022-12-31T16:19:59;3.55;;;1.80;;
71296;SDS011;59082;50.658;4.608;2022-12-31T16:22:48;8.23;;;2.08;;
71296;SDS011;59082;50.658;4.608;2022-12-31T16:25:21;4.15;;;1.77;;
71296;SDS011;59082;50.658;4.608;2022-12-31T16:27:51;5.63;;;2.05;;
71296;SDS011;59082;50.658;4.608;2022-12-31T16:42:21;4.70;;;2.17;;
71296;SDS011;59082;50.658;4.608;2022-12-31T16:44:52;7.30;;;2.20;;
71296;SDS011;59082;50.658;4.608;2022-12-31T16:50:06;4.88;;;1.70;;
71296;SDS011;59082;50.658;4.608;2022-12-31T16:52:39;4.27;;;1.27;;
71296;SDS011;59082;50.658;4.608;2022-12-31T16:55:14;8.23;;;2.38;;
71296;SDS011;59082;50.658;4.608;2022-12-31T16:57:40;3.72;;;2.30;;
71296;SDS011;59082;50.658;4.608;2022-12-31T17:00:06;4.85;;;1.80;;
71296;SDS011;59082;50.658;4.608;2022-12-31T17:02:39;4.78;;;1.98;;
71296;SDS011;59082;50.658;4.608;2022-12-31T17:05:16;3.00;;;1.40;;
71296;SDS011;59082;50.658;4.608;2022-12-31T17:07:43;4.65;;;1.80;;
71296;SDS011;59082;50.658;4.608;2022-12-31T17:10:19;3.72;;;1.98;;
71296;SDS011;59082;50.658;4.608;2022-12-31T17:12:51;4.65;;;2.00;;
71296;SDS011;59082;50.658;4.608;2022-12-31T17:15:26;4.97;;;1.70;;
71296;SDS011;59082;50.658;4.608;2022-12-31T17:17:59;4.40;;;1.70;;
71296;SDS011;59082;50.658;4.608;2022-12-31T17:20:27;4.50;;;1.60;;
71296;SDS011;59082;50.658;4.608;2022-12-31T17:22:56;3.55;;;1.70;;
71296;SDS011;59082;50.658;4.608;2022-12-31T17:25:29;5.10;;;2.15;;
71296;SDS011;59082;50.658;4.608;2022-12-31T17:27:56;5.30;;;2.23;;
71296;SDS011;59082;50.658;4.608;2022-12-31T17:35:30;4.35;;;1.70;;
71296;SDS011;59082;50.658;4.608;2022-12-31T17:40:42;4.00;;;1.45;;
71296;SDS011;59082;50.658;4.608;2022-12-31T17:43:12;5.30;;;2.13;;
71296;SDS011;59082;50.658;4.608;2022-12-31T17:45:38;6.73;;;2.03;;
71296;SDS011;59082;50.658;4.608;2022-12-31T17:48:08;6.75;;;2.58;;
71296;SDS011;59082;50.658;4.608;2022-12-31T17:50:36;3.00;;;2.05;;
71296;SDS011;59082;50.658;4.608;2022-12-31T17:53:13;4.60;;;1.40;;
71296;SDS011;59082;50.658;4.608;2022-12-31T17:55:38;7.63;;;1.43;;
71296;SDS011;59082;50.658;4.608;2022-12-31T17:58:06;3.53;;;1.85;;
71296;SDS011;59082;50.658;4.608;2022-12-31T18:00:32;12.00;;;2.97;;
71296;SDS011;59082;50.658;4.608;2022-12-31T18:03:00;5.47;;;1.80;;
71296;SDS011;59082;50.658;4.608;2022-12-31T18:05:26;8.03;;;2.13;;
71296;SDS011;59082;50.658;4.608;2022-12-31T18:07:52;6.28;;;2.25;;
71296;SDS011;59082;50.658;4.608;2022-12-31T18:10:19;6.90;;;2.03;;
71296;SDS011;59082;50.658;4.608;2022-12-31T18:12:46;8.80;;;2.50;;
71296;SDS011;59082;50.658;4.608;2022-12-31T18:15:14;6.22;;;2.13;;
71296;SDS011;59082;50.658;4.608;2022-12-31T18:17:42;3.80;;;2.00;;
71296;SDS011;59082;50.658;4.608;2022-12-31T18:20:08;7.78;;;1.65;;
71296;SDS011;59082;50.658;4.608;2022-12-31T18:22:34;6.30;;;2.23;;
71296;SDS011;59082;50.658;4.608;2022-12-31T18:25:01;4.05;;;1.63;;
71296;SDS011;59082;50.658;4.608;2022-12-31T18:27:26;6.72;;;2.05;;
71296;SDS011;59082;50.658;4.608;2022-12-31T18:29:54;3.00;;;2.13;;
71296;SDS011;59082;50.658;4.608;2022-12-31T18:32:23;4.82;;;2.00;;
71296;SDS011;59082;50.658;4.608;2022-12-31T18:34:51;6.72;;;1.90;;
71296;SDS011;59082;50.658;4.608;2022-12-31T18:37:16;4.30;;;2.03;;
71296;SDS011;59082;50.658;4.608;2022-12-31T18:39:43;3.88;;;2.05;;
71296;SDS011;59082;50.658;4.608;2022-12-31T18:42:12;4.75;;;1.88;;
71296;SDS011;59082;50.658;4.608;2022-12-31T18:44:40;7.20;;;2.23;;
71296;SDS011;59082;50.658;4.608;2022-12-31T18:47:12;4.63;;;1.48;;
71296;SDS011;59082;50.658;4.608;2022-12-31T18:49:38;5.38;;;1.60;;
71296;SDS011;59082;50.658;4.608;2022-12-31T18:52:05;3.97;;;1.95;;
71296;SDS011;59082;50.658;4.608;2022-12-31T18:54:31;6.35;;;2.13;;
71296;SDS011;59082;50.658;4.608;2022-12-31T18:56:56;4.73;;;2.20;;
71296;SDS011;59082;50.658;4.608;2022-12-31T18:59:22;2.47;;;1.60;;
71296;SDS011;59082;50.658;4.608;2022-12-31T19:01:47;5.85;;;2.30;;
71296;SDS011;59082;50.658;4.608;2022-12-31T19:04:14;3.30;;;1.83;;
71296;SDS011;59082;50.658;4.608;2022-12-31T19:06:43;4.13;;;1.92;;
71296;SDS011;59082;50.658;4.608;2022-12-31T19:09:09;4.63;;;1.77;;
71296;SDS011;59082;50.658;4.608;2022-12-31T19:11:36;7.03;;;2.60;;
71296;SDS011;59082;50.658;4.608;2022-12-31T19:14:04;4.57;;;1.92;;
71296;SDS011;59082;50.658;4.608;2022-12-31T19:16:46;4.60;;;1.73;;
71296;SDS011;59082;50.658;4.608;2022-12-31T19:19:12;5.45;;;2.42;;
71296;SDS011;59082;50.658;4.608;2022-12-31T19:21:37;4.60;;;1.90;;
71296;SDS011;59082;50.658;4.608;2022-12-31T19:24:13;5.85;;;2.42;;
71296;SDS011;59082;50.658;4.608;2022-12-31T19:26:43;6.60;;;2.25;;
71296;SDS011;59082;50.658;4.608;2022-12-31T19:29:30;10.60;;;2.60;;
71296;SDS011;59082;50.658;4.608;2022-12-31T19:31:54;4.80;;;1.67;;
71296;SDS011;59082;50.658;4.608;2022-12-31T19:34:21;3.50;;;1.80;;
71296;SDS011;59082;50.658;4.608;2022-12-31T19:36:47;5.33;;;2.10;;
71296;SDS011;59082;50.658;4.608;2022-12-31T19:39:16;7.20;;;2.43;;
71296;SDS011;59082;50.658;4.608;2022-12-31T19:41:44;4.80;;;1.60;;
71296;SDS011;59082;50.658;4.608;2022-12-31T19:44:13;3.17;;;1.73;;
71296;SDS011;59082;50.658;4.608;2022-12-31T19:46:40;5.90;;;1.90;;
71296;SDS011;59082;50.658;4.608;2022-12-31T19:49:06;4.40;;;1.70;;
71296;SDS011;59082;50.658;4.608;2022-12-31T19:51:34;5.55;;;3.17;;
71296;SDS011;59082;50.658;4.608;2022-12-31T19:54:00;8.07;;;1.57;;
71296;SDS011;59082;50.658;4.608;2022-12-31T19:56:25;5.07;;;2.03;;
71296;SDS011;59082;50.658;4.608;2022-12-31T19:58:51;5.72;;;2.03;;
71296;SDS011;59082;50.658;4.608;2022-12-31T20:01:18;4.60;;;1.63;;
71296;SDS011;59082;50.658;4.608;2022-12-31T20:03:45;6.03;;;2.08;;
71296;SDS011;59082;50.658;4.608;2022-12-31T20:06:11;5.95;;;2.33;;